Lake Emma, Minnesota
Current Conditions -  °F | °C
As of 6:53 AM on Saturday 25 Oct 2014 (Local Time) from KPKD Reporting Station
Clear Clear  
Wind Chill: 31°   Ceiling: Unl
Heat Index: 38°   Visibility: 10mi
Dew Point: 31°   Wind: 9mph
Humidity: 76%   Direction: 280°W
Pressure: 29.99"   Gusts: NA
Location:  46.9966°N, 95.0029°W
Report Text: KPKD 251153Z AUTO 28008KT 10SM CLR 03/M01 A2999 RMK AO2 SLP166 T00331006 10117 20033 52016 TSNO
Loading
Personal Weather Stations






























Interactive Weather Map
Tropical Storm Tracking
New forecast layout! Learn more

10-Day Weather Forecast

Advertisements
Track Severe Weather on mobile